Williamsport, Indiana
Current Conditions -  °F | °C
As of 1:15 PM on Friday 19 Dec 2014 (Local Time) from KDNV Reporting Station
Overcast Overcast  
Wind Chill: -2°   Ceiling: 2600
Heat Index: -2°   Visibility: 7mi
Dew Point: -4°   Wind: 0mph
Humidity: 82%   Direction: NA
Pressure: 30.26"   Gusts: NA
Location:  40.29°N, 87.29°W
Report Text: KDNV 191815Z AUTO 00000KT 7SM OVC026 M02/M04 A3026 RMK AO2 T10161043
Loading
Personal Weather Stations






























Interactive Weather Map New forecast layout! Learn more

10-Day Weather Forecast

Advertisements
Track Severe Weather on mobile